createdAt,value
2019-05-26T00:01:26.214Z,26.10
2019-05-26T00:03:59.599Z,26.10
2019-05-26T00:06:34.124Z,26.10
2019-05-26T00:09:06.911Z,26.10
2019-05-26T00:11:40.723Z,26.10
2019-05-26T00:14:14.381Z,26.20
2019-05-26T00:16:49.486Z,26.20
2019-05-26T00:19:22.838Z,26.20
2019-05-26T00:21:56.604Z,26.20
2019-05-26T00:24:30.285Z,26.30
2019-05-26T00:27:03.863Z,26.30
2019-05-26T00:29:38.384Z,26.30
2019-05-26T00:32:12.020Z,26.30
2019-05-26T00:34:45.371Z,26.30
2019-05-26T00:37:18.867Z,26.30
2019-05-26T00:39:52.788Z,26.40
2019-05-26T00:42:26.088Z,26.40
2019-05-26T00:44:59.373Z,26.40
2019-05-26T00:47:34.789Z,26.40
2019-05-26T00:50:09.536Z,26.40
2019-05-26T00:52:44.120Z,26.40
2019-05-26T00:55:18.517Z,26.50
2019-05-26T00:57:52.365Z,26.50
2019-05-26T01:00:45.119Z,26.50
2019-05-26T01:03:18.767Z,26.60
2019-05-26T01:05:52.325Z,26.60
2019-05-26T01:08:26.395Z,26.60
2019-05-26T01:11:01.375Z,26.60
2019-05-26T01:13:35.838Z,26.70
2019-05-26T01:16:08.037Z,26.70
2019-05-26T01:18:42.383Z,26.70
2019-05-26T01:21:17.130Z,26.70
2019-05-26T01:23:51.920Z,26.80
2019-05-26T01:26:27.740Z,26.70
2019-05-26T01:29:01.650Z,26.80
2019-05-26T01:31:39.094Z,26.80
2019-05-26T01:34:13.066Z,26.80
2019-05-26T01:36:47.233Z,26.80
2019-05-26T01:39:21.017Z,26.90
2019-05-26T01:41:54.737Z,26.80
2019-05-26T01:44:28.632Z,26.90
2019-05-26T01:47:02.317Z,26.90
2019-05-26T01:49:35.954Z,26.90
2019-05-26T01:52:09.613Z,27.00
2019-05-26T01:54:43.561Z,27.00
2019-05-26T01:57:17.922Z,27.10
2019-05-26T01:59:50.555Z,27.10
2019-05-26T02:02:24.326Z,27.20
2019-05-26T02:04:58.346Z,27.30
2019-05-26T02:07:32.331Z,27.30
2019-05-26T02:10:08.158Z,27.30
2019-05-26T02:12:44.762Z,27.30
2019-05-26T02:15:20.273Z,27.30
2019-05-26T02:17:54.519Z,27.30
2019-05-26T02:20:28.970Z,27.30
2019-05-26T02:23:04.515Z,27.30
2019-05-26T02:25:38.596Z,27.30
2019-05-26T02:28:14.220Z,27.30
2019-05-26T02:30:47.688Z,27.30
2019-05-26T02:33:22.499Z,27.40
2019-05-26T02:35:56.182Z,27.40
2019-05-26T02:38:29.586Z,27.40
2019-05-26T02:41:03.321Z,27.40
2019-05-26T02:43:37.321Z,27.40
2019-05-26T02:46:11.481Z,27.50
2019-05-26T02:48:45.424Z,27.50
2019-05-26T02:51:21.270Z,27.50
2019-05-26T02:53:55.958Z,27.50
2019-05-26T02:56:29.647Z,27.50
2019-05-26T02:59:03.699Z,27.50
2019-05-26T03:01:38.546Z,27.60
2019-05-26T03:04:13.563Z,27.60
2019-05-26T03:06:48.607Z,27.60
2019-05-26T03:09:24.593Z,27.60
2019-05-26T03:12:00.134Z,27.60
2019-05-26T03:14:35.591Z,27.60
2019-05-26T03:17:09.740Z,27.70
2019-05-26T03:19:45.750Z,27.70
2019-05-26T03:22:21.478Z,27.70
2019-05-26T03:24:57.207Z,27.70
2019-05-26T03:27:30.791Z,27.80
2019-05-26T03:30:05.054Z,27.80
2019-05-26T03:32:39.154Z,27.80
2019-05-26T03:35:14.441Z,27.90
2019-05-26T03:37:49.158Z,27.90
2019-05-26T03:40:23.078Z,27.90
2019-05-26T03:42:57.009Z,27.90
2019-05-26T03:45:44.958Z,27.90
2019-05-26T03:48:19.406Z,27.90
2019-05-26T03:50:54.558Z,27.90
2019-05-26T03:53:29.312Z,27.90
2019-05-26T03:56:05.424Z,28.00
2019-05-26T03:58:39.535Z,27.90
2019-05-26T04:01:15.562Z,27.90
2019-05-26T04:03:50.515Z,27.90
2019-05-26T04:06:24.446Z,28.00
2019-05-26T04:08:58.642Z,28.00
2019-05-26T04:11:32.508Z,28.00
2019-05-26T04:14:07.224Z,28.00
2019-05-26T04:16:40.486Z,28.00
2019-05-26T04:19:14.001Z,28.00
2019-05-26T04:21:49.468Z,28.00
2019-05-26T04:24:25.082Z,28.00
2019-05-26T04:26:59.686Z,28.00
2019-05-26T04:29:34.895Z,28.00
2019-05-26T04:32:11.624Z,28.00
2019-05-26T04:34:46.346Z,28.00
2019-05-26T04:37:21.690Z,28.00
2019-05-26T04:39:56.640Z,28.10
2019-05-26T04:42:31.525Z,28.10
2019-05-26T04:45:05.732Z,28.10
2019-05-26T04:47:40.003Z,28.10
2019-05-26T04:50:13.825Z,28.10
2019-05-26T04:53:05.616Z,28.00
2019-05-26T04:55:29.984Z,28.00
2019-05-26T04:58:04.830Z,28.00
2019-05-26T05:00:41.076Z,28.00
2019-05-26T05:03:20.419Z,28.00
2019-05-26T05:05:59.374Z,28.00
2019-05-26T05:08:34.536Z,28.00
2019-05-26T05:11:11.205Z,28.00
2019-05-26T05:13:46.298Z,28.10
2019-05-26T05:16:22.124Z,28.10
2019-05-26T05:18:56.250Z,28.10
2019-05-26T05:21:37.524Z,28.00
2019-05-26T05:24:17.232Z,28.00
2019-05-26T05:26:53.247Z,28.00
2019-05-26T05:29:28.915Z,28.00
2019-05-26T05:32:02.808Z,28.00
2019-05-26T05:34:39.365Z,27.90
2019-05-26T05:37:13.811Z,27.90
2019-05-26T05:39:52.107Z,27.90
2019-05-26T05:42:26.552Z,27.90
2019-05-26T05:45:03.373Z,27.90
2019-05-26T05:47:39.123Z,27.80
2019-05-26T05:50:13.390Z,27.80
2019-05-26T05:52:51.888Z,27.80
2019-05-26T05:55:40.307Z,27.70
2019-05-26T05:58:09.060Z,27.70
2019-05-26T06:00:47.290Z,27.60
2019-05-26T06:03:22.611Z,27.60
2019-05-26T06:06:02.329Z,27.50
2019-05-26T06:08:38.898Z,27.50
2019-05-26T06:11:16.915Z,27.50
2019-05-26T06:13:55.068Z,27.40
2019-05-26T06:16:30.276Z,27.40
2019-05-26T06:19:07.329Z,27.30
2019-05-26T06:21:43.361Z,27.30
2019-05-26T06:24:19.548Z,27.30
2019-05-26T06:26:54.424Z,27.30
2019-05-26T06:29:29.734Z,27.40
2019-05-26T06:32:04.920Z,27.40
2019-05-26T06:34:40.724Z,27.50
2019-05-26T06:37:16.671Z,27.50
2019-05-26T06:39:59.780Z,27.60
2019-05-26T06:42:41.871Z,27.60
2019-05-26T06:45:16.847Z,27.60
2019-05-26T06:47:50.521Z,27.60
2019-05-26T06:50:28.118Z,27.60
2019-05-26T06:53:02.004Z,27.60
2019-05-26T06:55:37.165Z,27.50
2019-05-26T06:58:12.541Z,27.50
2019-05-26T07:00:48.365Z,27.50
2019-05-26T07:03:22.202Z,27.50
2019-05-26T07:06:01.737Z,27.50
2019-05-26T07:08:38.431Z,27.50
2019-05-26T07:11:14.218Z,27.50
2019-05-26T07:13:48.945Z,27.50
2019-05-26T07:16:37.462Z,27.50
2019-05-26T07:19:03.983Z,27.50
2019-05-26T07:21:43.837Z,27.50
2019-05-26T07:24:22.561Z,27.50
2019-05-26T07:26:56.758Z,27.50
2019-05-26T07:29:45.022Z,27.50
2019-05-26T07:32:23.552Z,27.50
2019-05-26T07:35:16.895Z,27.50
2019-05-26T07:38:03.807Z,27.50
2019-05-26T07:40:41.812Z,27.50
2019-05-26T07:43:16.698Z,27.50
2019-05-26T07:45:54.184Z,27.60
2019-05-26T07:48:29.476Z,27.60
2019-05-26T07:51:05.337Z,27.50
2019-05-26T07:53:44.626Z,27.50
2019-05-26T07:56:20.493Z,27.50
2019-05-26T07:58:55.051Z,27.50
2019-05-26T08:01:36.088Z,27.50
2019-05-26T08:04:09.017Z,27.50
2019-05-26T08:06:48.169Z,27.50
2019-05-26T08:09:21.975Z,27.40
2019-05-26T08:12:01.688Z,27.40
2019-05-26T08:14:39.087Z,27.40
2019-05-26T08:17:18.163Z,27.40
2019-05-26T08:19:52.881Z,27.40
2019-05-26T08:22:26.363Z,27.40
2019-05-26T08:25:00.798Z,27.40
2019-05-26T08:27:34.880Z,27.40
2019-05-26T08:30:11.401Z,27.40
2019-05-26T08:32:45.098Z,27.30
2019-05-26T08:35:19.814Z,27.40
2019-05-26T08:37:54.133Z,27.40
2019-05-26T08:40:31.702Z,27.30
2019-05-26T08:43:07.002Z,27.30
2019-05-26T08:45:43.855Z,27.30
2019-05-26T08:48:18.166Z,27.30
2019-05-26T08:50:52.999Z,27.30
2019-05-26T08:53:27.685Z,27.20
2019-05-26T08:56:02.172Z,27.10
2019-05-26T08:58:37.268Z,27.10
2019-05-26T09:01:11.816Z,27.00
2019-05-26T09:03:46.735Z,26.90
2019-05-26T09:06:21.283Z,26.90
2019-05-26T09:08:54.111Z,26.90
2019-05-26T09:11:27.737Z,26.90
2019-05-26T09:14:01.953Z,26.90
2019-05-26T09:16:37.572Z,26.90
2019-05-26T09:19:23.104Z,26.80
2019-05-26T09:21:57.121Z,26.80
2019-05-26T09:24:31.927Z,26.70
2019-05-26T09:27:06.656Z,26.70
2019-05-26T09:29:47.041Z,26.70
2019-05-26T09:32:21.185Z,26.70
2019-05-26T09:34:56.117Z,26.60
2019-05-26T09:37:35.515Z,26.50
2019-05-26T09:40:10.994Z,26.50
2019-05-26T09:42:44.950Z,26.50
2019-05-26T09:45:19.163Z,26.40
2019-05-26T09:47:52.976Z,26.40
2019-05-26T09:50:27.036Z,26.30
2019-05-26T09:53:00.907Z,26.40
2019-05-26T09:55:34.708Z,26.20
2019-05-26T09:58:08.805Z,26.20
2019-05-26T10:00:44.730Z,26.10
2019-05-26T10:03:18.605Z,26.10
2019-05-26T10:05:53.695Z,26.10
2019-05-26T10:08:27.457Z,26.00
2019-05-26T10:11:01.106Z,25.90
2019-05-26T10:13:35.137Z,25.80
2019-05-26T10:16:10.453Z,25.80
2019-05-26T10:18:44.755Z,25.80
2019-05-26T10:21:19.041Z,25.80
2019-05-26T10:23:55.185Z,25.80
2019-05-26T10:26:32.922Z,25.80
2019-05-26T10:29:07.316Z,25.90
2019-05-26T10:31:39.765Z,25.90
2019-05-26T10:34:14.687Z,25.90
2019-05-26T10:36:48.160Z,25.90
2019-05-26T10:39:25.020Z,25.90
2019-05-26T10:41:59.202Z,25.80
2019-05-26T10:44:33.107Z,25.80
2019-05-26T10:47:07.948Z,25.80
2019-05-26T10:49:41.997Z,25.80
2019-05-26T10:52:16.619Z,25.80
2019-05-26T10:54:50.258Z,25.80
2019-05-26T10:57:25.408Z,25.80
2019-05-26T10:59:58.995Z,25.70
2019-05-26T11:02:33.261Z,25.70
2019-05-26T11:05:10.588Z,25.70
2019-05-26T11:07:47.217Z,25.70
2019-05-26T11:10:21.302Z,25.70
2019-05-26T11:12:54.984Z,25.70
2019-05-26T11:15:29.086Z,25.70
2019-05-26T11:18:03.836Z,25.80
2019-05-26T11:20:37.803Z,25.80
2019-05-26T11:23:12.847Z,25.80
2019-05-26T11:25:49.000Z,25.80
2019-05-26T11:28:23.295Z,25.80
2019-05-26T11:30:57.145Z,25.80
2019-05-26T11:33:31.492Z,25.80
2019-05-26T11:36:05.088Z,25.80
2019-05-26T11:38:38.707Z,25.80
2019-05-26T11:41:12.405Z,25.80
2019-05-26T11:43:45.988Z,25.80
2019-05-26T11:46:20.068Z,25.70
2019-05-26T11:48:55.486Z,25.70
2019-05-26T11:51:30.254Z,25.70
2019-05-26T11:54:04.633Z,25.70
2019-05-26T11:56:39.815Z,25.70
2019-05-26T11:59:13.574Z,25.70
2019-05-26T12:01:47.240Z,25.70
2019-05-26T12:04:21.957Z,25.70
2019-05-26T12:06:56.971Z,25.70
2019-05-26T12:09:31.107Z,25.60
2019-05-26T12:12:05.906Z,25.70
2019-05-26T12:14:39.473Z,25.70
2019-05-26T12:17:13.510Z,25.70
2019-05-26T12:19:49.689Z,25.70
2019-05-26T12:22:24.537Z,25.70
2019-05-26T12:24:59.097Z,25.70
2019-05-26T12:27:33.833Z,25.70
2019-05-26T12:30:08.846Z,25.60
2019-05-26T12:32:44.551Z,25.60
2019-05-26T12:35:19.264Z,25.60
2019-05-26T12:37:55.724Z,25.60
2019-05-26T12:40:33.835Z,25.60
2019-05-26T12:43:07.462Z,25.60
2019-05-26T12:45:45.856Z,25.60
2019-05-26T12:48:20.219Z,25.60
2019-05-26T12:50:59.816Z,25.60
2019-05-26T12:53:37.811Z,25.60
2019-05-26T12:56:17.809Z,25.60
2019-05-26T12:58:57.135Z,25.60
2019-05-26T13:01:34.270Z,25.60
2019-05-26T13:04:13.451Z,25.60
2019-05-26T13:06:54.104Z,25.60
2019-05-26T13:09:33.558Z,25.60
2019-05-26T13:12:15.754Z,25.60
2019-05-26T13:15:04.925Z,25.60
2019-05-26T13:17:32.574Z,25.60
2019-05-26T13:20:11.586Z,25.60
2019-05-26T13:22:48.840Z,25.60
2019-05-26T13:25:23.429Z,25.60
2019-05-26T13:27:58.488Z,25.60
2019-05-26T13:30:45.265Z,25.60
2019-05-26T13:33:20.324Z,25.60
2019-05-26T13:35:54.885Z,25.60
2019-05-26T13:38:30.610Z,25.60
2019-05-26T13:41:05.411Z,25.60
2019-05-26T13:43:38.675Z,25.60
2019-05-26T13:46:13.532Z,25.60
2019-05-26T13:48:53.703Z,25.60
2019-05-26T13:51:28.227Z,25.60
2019-05-26T13:54:02.444Z,25.60
2019-05-26T13:56:39.046Z,25.60
2019-05-26T13:59:18.305Z,25.60
2019-05-26T14:01:51.887Z,25.60
2019-05-26T14:04:25.560Z,25.60
2019-05-26T14:06:59.281Z,25.60
2019-05-26T14:09:33.530Z,25.60
2019-05-26T14:12:07.814Z,25.60
2019-05-26T14:14:45.452Z,25.60
2019-05-26T14:17:27.598Z,25.60
2019-05-26T14:20:03.740Z,25.60
2019-05-26T14:22:39.721Z,25.60
2019-05-26T14:25:17.320Z,25.60
2019-05-26T14:27:52.302Z,25.60
2019-05-26T14:30:30.886Z,25.60
2019-05-26T14:33:05.576Z,25.60
2019-05-26T14:35:41.911Z,25.60
2019-05-26T14:38:16.626Z,25.60
2019-05-26T14:40:50.885Z,25.60
2019-05-26T14:43:29.291Z,25.60
2019-05-26T14:46:08.689Z,25.60
2019-05-26T14:48:43.632Z,25.60
2019-05-26T14:51:21.104Z,25.60
2019-05-26T14:53:56.115Z,25.60
2019-05-26T14:56:35.956Z,25.60
2019-05-26T14:59:13.253Z,25.60
2019-05-26T15:01:53.821Z,25.60
2019-05-26T15:07:23.184Z,25.60
2019-05-26T15:10:02.804Z,25.60
2019-05-26T15:12:37.727Z,25.60
2019-05-26T15:15:12.434Z,25.60
2019-05-26T15:17:48.002Z,25.60
2019-05-26T15:20:32.864Z,25.60
2019-05-26T15:23:09.932Z,25.60
2019-05-26T15:25:45.775Z,25.50
2019-05-26T15:28:23.798Z,25.60
2019-05-26T15:31:10.009Z,25.60
2019-05-26T15:33:45.290Z,25.60
2019-05-26T15:36:33.759Z,25.60
2019-05-26T15:41:52.987Z,25.60
2019-05-26T15:44:28.445Z,25.50
2019-05-26T15:47:05.835Z,25.60
2019-05-26T15:49:39.412Z,25.60
2019-05-26T15:52:18.727Z,25.60
2019-05-26T15:54:53.828Z,25.60
2019-05-26T15:57:30.748Z,25.60
2019-05-26T16:00:13.638Z,25.50
2019-05-26T16:02:50.855Z,25.50
2019-05-26T16:05:26.963Z,25.50
2019-05-26T16:08:03.018Z,25.50
2019-05-26T16:10:45.312Z,25.50
2019-05-26T16:13:21.554Z,25.50
2019-05-26T16:15:58.374Z,25.50
2019-05-26T16:18:38.295Z,25.50
2019-05-26T16:21:26.984Z,25.50
2019-05-26T16:23:53.330Z,25.50
2019-05-26T16:26:28.986Z,25.50
2019-05-26T16:29:23.782Z,25.50
2019-05-26T16:32:03.198Z,25.50
2019-05-26T16:34:38.095Z,25.50
2019-05-26T16:37:19.394Z,25.50
2019-05-26T16:39:55.923Z,25.50
2019-05-26T16:42:37.470Z,25.50
2019-05-26T16:45:15.988Z,25.50
2019-05-26T16:47:52.855Z,25.50
2019-05-26T16:50:30.772Z,25.50
2019-05-26T16:53:09.278Z,25.40
2019-05-26T16:55:51.615Z,25.50
2019-05-26T16:58:26.879Z,25.50
2019-05-26T17:01:03.806Z,25.40
2019-05-26T17:03:38.970Z,25.50
2019-05-26T17:06:13.903Z,25.40
2019-05-26T17:08:48.939Z,25.50
2019-05-26T17:11:24.806Z,25.50
2019-05-26T17:14:04.266Z,25.50
2019-05-26T17:16:39.308Z,25.50
2019-05-26T17:19:14.905Z,25.50
2019-05-26T17:21:52.698Z,25.50
2019-05-26T17:24:31.776Z,25.50
2019-05-26T17:27:05.902Z,25.50
2019-05-26T17:29:43.027Z,25.50
2019-05-26T17:32:19.412Z,25.40
2019-05-26T17:34:54.418Z,25.40
2019-05-26T17:37:31.690Z,25.40
2019-05-26T17:40:08.748Z,25.40
2019-05-26T17:42:44.841Z,25.40
2019-05-26T17:45:19.556Z,25.40
2019-05-26T17:47:54.672Z,25.40
2019-05-26T17:50:30.373Z,25.40
2019-05-26T17:53:03.679Z,25.40
2019-05-26T17:55:38.376Z,25.40
2019-05-26T17:58:12.305Z,25.40
2019-05-26T18:00:45.671Z,25.40
2019-05-26T18:03:23.102Z,25.40
2019-05-26T18:05:56.975Z,25.40
2019-05-26T18:08:31.338Z,25.40
2019-05-26T18:11:06.936Z,25.40
2019-05-26T18:13:40.855Z,25.40
2019-05-26T18:16:14.521Z,25.40
2019-05-26T18:18:48.277Z,25.40
2019-05-26T18:21:22.801Z,25.40
2019-05-26T18:23:57.932Z,25.40
2019-05-26T18:26:30.766Z,25.40
2019-05-26T18:29:04.396Z,25.40
2019-05-26T18:31:38.110Z,25.40
2019-05-26T18:34:14.261Z,25.40
2019-05-26T18:36:48.117Z,25.40
2019-05-26T18:39:22.078Z,25.40
2019-05-26T18:41:55.548Z,25.40
2019-05-26T18:44:28.818Z,25.40
2019-05-26T18:47:02.548Z,25.30
2019-05-26T18:49:36.121Z,25.40
2019-05-26T18:52:10.140Z,25.40
2019-05-26T18:54:43.916Z,25.30
2019-05-26T18:57:17.343Z,25.40
2019-05-26T18:59:51.833Z,25.30
2019-05-26T19:02:24.766Z,25.40
2019-05-26T19:04:58.361Z,25.40
2019-05-26T19:07:32.698Z,25.30
2019-05-26T19:10:08.347Z,25.30
2019-05-26T19:12:42.802Z,25.30
2019-05-26T19:15:18.933Z,25.30
2019-05-26T19:17:53.567Z,25.30
2019-05-26T19:20:28.014Z,25.30
2019-05-26T19:23:00.314Z,25.30
2019-05-26T19:25:33.605Z,25.30
2019-05-26T19:28:08.509Z,25.30
2019-05-26T19:30:44.983Z,25.30
2019-05-26T19:33:16.989Z,25.30
2019-05-26T19:35:51.649Z,25.30
2019-05-26T19:38:25.419Z,25.30
2019-05-26T19:40:59.545Z,25.30
2019-05-26T19:43:33.895Z,25.30
2019-05-26T19:46:07.860Z,25.30
2019-05-26T19:48:43.005Z,25.30
2019-05-26T19:51:16.924Z,25.30
2019-05-26T19:53:50.773Z,25.30
2019-05-26T19:56:24.441Z,25.30
2019-05-26T19:58:57.901Z,25.30
2019-05-26T20:01:32.325Z,25.30
2019-05-26T20:04:07.661Z,25.30
2019-05-26T20:06:43.845Z,25.30
2019-05-26T20:09:17.418Z,25.30
2019-05-26T20:11:50.931Z,25.30
2019-05-26T20:14:24.789Z,25.30
2019-05-26T20:16:58.835Z,25.30
2019-05-26T20:19:33.621Z,25.30
2019-05-26T20:22:07.517Z,25.30
2019-05-26T20:24:41.007Z,25.30
2019-05-26T20:27:14.676Z,25.30
2019-05-26T20:29:48.141Z,25.30
2019-05-26T20:32:22.059Z,25.30
2019-05-26T20:34:55.738Z,25.30
2019-05-26T20:37:30.428Z,25.30
2019-05-26T20:40:04.688Z,25.30
2019-05-26T20:42:39.463Z,25.20
2019-05-26T20:45:13.108Z,25.30
2019-05-26T20:47:48.171Z,25.20
2019-05-26T20:50:29.257Z,25.30
2019-05-26T20:52:58.759Z,25.30
2019-05-26T20:55:31.444Z,25.30
2019-05-26T20:58:04.193Z,25.30
2019-05-26T21:00:37.525Z,25.30
2019-05-26T21:03:11.696Z,25.20
2019-05-26T21:05:45.859Z,25.20
2019-05-26T21:08:19.406Z,25.30
2019-05-26T21:10:54.719Z,25.30
2019-05-26T21:13:28.165Z,25.30
2019-05-26T21:16:01.833Z,25.30
2019-05-26T21:18:35.459Z,25.30
2019-05-26T21:21:09.078Z,25.20
2019-05-26T21:23:42.651Z,25.20
2019-05-26T21:26:16.079Z,25.20
2019-05-26T21:28:50.134Z,25.20
2019-05-26T21:31:24.256Z,25.20
2019-05-26T21:33:58.001Z,25.20
2019-05-26T21:36:31.694Z,25.10
2019-05-26T21:39:05.298Z,25.10
2019-05-26T21:41:40.831Z,25.10
2019-05-26T21:44:14.630Z,25.10
2019-05-26T21:46:48.822Z,25.10
2019-05-26T21:49:22.868Z,25.20
2019-05-26T21:51:57.444Z,25.10
2019-05-26T21:54:30.635Z,25.20
2019-05-26T21:57:04.857Z,25.10
2019-05-26T21:59:39.070Z,25.10
2019-05-26T22:02:13.087Z,25.20
2019-05-26T22:04:47.982Z,25.20
2019-05-26T22:07:21.585Z,25.20
2019-05-26T22:09:56.472Z,25.20
2019-05-26T22:12:30.415Z,25.20
2019-05-26T22:15:04.215Z,25.20
2019-05-26T22:17:38.837Z,25.10
2019-05-26T22:20:13.646Z,25.20
2019-05-26T22:22:48.276Z,25.20
2019-05-26T22:25:22.462Z,25.20
2019-05-26T22:27:55.921Z,25.20
2019-05-26T22:30:30.062Z,25.20
2019-05-26T22:33:03.533Z,25.20
2019-05-26T22:35:37.679Z,25.20
2019-05-26T22:38:11.248Z,25.20
2019-05-26T22:40:46.329Z,25.20
2019-05-26T22:43:20.333Z,25.30
2019-05-26T22:45:54.977Z,25.20
2019-05-26T22:48:28.495Z,25.20
2019-05-26T22:51:02.294Z,25.30
2019-05-26T22:53:36.269Z,25.30
2019-05-26T22:56:10.182Z,25.20
2019-05-26T22:58:43.873Z,25.30
2019-05-26T23:01:17.679Z,25.20
2019-05-26T23:03:51.502Z,25.30
2019-05-26T23:06:25.335Z,25.30
2019-05-26T23:08:59.210Z,25.30
2019-05-26T23:11:33.945Z,25.30
2019-05-26T23:14:09.090Z,25.30
2019-05-26T23:16:42.769Z,25.30
2019-05-26T23:19:19.913Z,25.30
2019-05-26T23:21:52.232Z,25.30
2019-05-26T23:24:26.857Z,25.40
2019-05-26T23:27:00.939Z,25.40
2019-05-26T23:29:34.846Z,25.40
2019-05-26T23:32:08.405Z,25.40
2019-05-26T23:34:41.860Z,25.40
2019-05-26T23:37:17.232Z,25.40
2019-05-26T23:39:51.056Z,25.40
2019-05-26T23:42:25.221Z,25.40
2019-05-26T23:44:59.349Z,25.50
2019-05-26T23:47:33.906Z,25.40
2019-05-26T23:50:09.063Z,25.40
2019-05-26T23:52:44.805Z,25.50
2019-05-26T23:55:19.971Z,25.50
2019-05-26T23:57:54.174Z,25.50
